YM Venus — 9HCB8 — position and weather

sailwx.info

Track history (hours):
 
Tides and Currents Weather Stations Pressure Air Temp Water Temp Dewpoint Dewpoint Depression Visibility Wind Speed Wind Dir Waves Ship Positions

YM Venus

Last reported at 2014-Aug-01 00:13 UTC. Time now 2014-Aug-02 06:34 UTC.
Position N 32°49' E 035°02'.

Length 105 m; draft 6.5 m.

Type: Ship (hazmat cat B). MMSI: 215826000.

Date/timePositionNaut miles runAvg speedWind from/ knotsBaromVisibWave heightAir tempDewpointWater temp
2014-Aug-01 00:13N 32°49' E 035°02'0 0.0
2014-Jul-31 23:03N 32°49' E 035°02'0 0.0
2014-Jul-31 22:33N 32°49' E 035°02'0 0.0
2014-Jul-31 21:29N 32°49' E 035°02'0 0.0
2014-Jul-31 20:15N 32°49' E 035°02'0 0.0
2014-Jul-31 17:21N 32°49' E 035°02'0 0.0
2014-Jul-31 16:15N 32°49' E 035°02'0 0.0
2014-Jul-31 15:17N 32°49' E 035°02'0 0.0
2014-Jul-30 17:20N 32°49' E 035°02'0 0.0
2014-Jul-30 16:33N 32°49' E 035°02'0 0.0
2014-Jul-30 08:09N 32°49' E 035°02'0 0.0
2014-Jul-30 06:33N 32°49' E 035°02'39 5.4
2014-Jul-29 23:17N 32°60' E 034°17'912.0
2014-Jul-29 22:31N 33°02' E 034°06'1111.9
2014-Jul-29 21:33N 33°05' E 033°53'1111.6
2014-Jul-29 20:33N 33°08' E 033°40'1111.5
2014-Jul-29 19:33N 33°10' E 033°27'1211.2
2014-Jul-29 18:31N 33°13' E 033°13'1111.3
2014-Jul-29 17:33N 33°16' E 033°00'1111.2
2014-Jul-29 16:33N 33°17' E 032°47'1110.6
2014-Jul-29 15:33N 33°18' E 032°35'1110.7
2014-Jul-29 14:33N 33°21' E 032°22'1111.0
2014-Jul-29 13:33N 33°24' E 032°09'2 2.4
2014-Jul-29 12:33N 33°25' E 032°07'6 5.7
2014-Jul-29 11:33N 33°24' E 032°14'1111.3
2014-Jul-29 10:34N 33°27' E 032°01'1111.3
2014-Jul-29 09:34N 33°30' E 031°48'1111.1
2014-Jul-29 08:33N 33°33' E 031°35'1111.1
2014-Jul-29 07:33N 33°35' E 031°21'1311.1
2014-Jul-29 06:21N 33°38' E 031°06'911.8
2014-Jul-29 05:33N 33°40' E 030°55'1511.9
2014-Jul-29 04:16N 33°43' E 030°37'9111.7
2014-Jul-28 20:30N 34°05' E 028°51'5212.2
2014-Jul-28 16:14N 34°17' E 027°49'21911.5
2014-Jul-27 21:12N 35°07' E 023°30'3011.2
2014-Jul-27 18:29N 35°10' E 022°53'35811.5
2014-Jul-26 11:15N 35°59' E 015°36'3111.5
2014-Jul-26 08:33N 36°07' E 014°59'1312.3
2014-Jul-26 07:32N 36°10' E 014°44'1212.1
2014-Jul-26 06:33N 36°13' E 014°30'1212.0
2014-Jul-26 05:34N 36°17' E 014°15'1212.2
2014-Jul-26 04:34N 36°21' E 014°01'1211.9
2014-Jul-26 03:34N 36°25' E 013°47'1211.8
2014-Jul-26 02:33N 36°30' E 013°34'1211.8
2014-Jul-26 01:33N 36°34' E 013°20'1312.6
2014-Jul-26 00:34N 36°39' E 013°06'1312.9
2014-Jul-25 23:34N 36°44' E 012°51'1312.8
2014-Jul-25 22:33N 36°48' E 012°36'1312.6
2014-Jul-25 21:33N 36°53' E 012°21'1212.4
2014-Jul-25 20:34N 36°58' E 012°07'1212.0
2014-Jul-25 19:34N 37°03' E 011°53'2911.8
2014-Jul-25 17:07N 37°17' E 011°22'4211.1
2014-Jul-25 13:18N 37°38' E 010°36'4 4.7
2014-Jul-25 12:32N 37°40' E 010°32'10 9.9
2014-Jul-25 11:32N 37°45' E 010°21'1111.4
2014-Jul-25 10:33N 37°52' E 010°10'1111.2
2014-Jul-25 09:33N 37°58' E 009°58'1111.3
2014-Jul-25 08:33N 38°04' E 009°46'1111.4
2014-Jul-25 07:33N 38°11' E 009°34'1111.3
2014-Jul-25 06:33N 38°17' E 009°22'1211.8
2014-Jul-25 05:33N 38°24' E 009°10'1211.7
2014-Jul-25 04:33N 38°31' E 008°58'1111.6
2014-Jul-25 03:33N 38°38' E 008°46'1711.9
2014-Jul-25 02:08N 38°46' E 008°27'1912.0
2014-Jul-25 00:33N 38°53' E 008°05'1211.6
2014-Jul-24 23:33N 38°58' E 007°51'1611.2
2014-Jul-24 22:06N 39°06' E 007°32'1111.5
2014-Jul-24 21:10N 39°12' E 007°21'3111.9
2014-Jul-24 18:33N 39°26' E 006°45'3611.7
2014-Jul-24 15:30N 39°42' E 006°04'1411.6
2014-Jul-24 14:18N 39°49' E 005°47'2813.0
2014-Jul-24 12:11N 40°02' E 005°16'1112.0
2014-Jul-24 11:17N 40°08' E 005°05'1112.5
2014-Jul-24 10:26N 40°13' E 004°53'1111.8
2014-Jul-24 09:32N 40°19' E 004°41'1212.0
2014-Jul-24 08:33N 40°24' E 004°27'1212.1
2014-Jul-24 07:33N 40°29' E 004°13'1312.2
2014-Jul-24 06:27N 40°35' E 003°57'1312.6
2014-Jul-24 05:28N 40°41' E 003°42'1010.8
2014-Jul-24 04:33N 40°45' E 003°30'1212.0
2014-Jul-24 03:33N 40°51' E 003°16'1312.9
2014-Jul-24 02:33N 40°56' E 003°01'1111.0
2014-Jul-24 01:33N 41°01' E 002°48'1211.7
2014-Jul-24 00:33N 41°07' E 002°35'1111.4
2014-Jul-23 23:33N 41°12' E 002°21'1110.8
2014-Jul-23 22:33N 41°19' E 002°10'1 0.0
2014-Jul-22 23:19N 41°20' E 002°09'0 0.0
2014-Jul-22 22:11N 41°20' E 002°09'1 1.5
2014-Jul-22 21:33N 41°20' E 002°10'1 0.3
2014-Jul-22 18:13N 41°20' E 002°11'0 0.0
2014-Jul-22 17:07N 41°20' E 002°11'0 0.0
2014-Jul-22 16:19N 41°20' E 002°11'0 0.0
2014-Jul-22 15:31N 41°20' E 002°11'0 0.0
2014-Jul-22 13:19N 41°20' E 002°11'0 0.0
2014-Jul-22 11:13N 41°20' E 002°11'0 0.0
2014-Jul-22 10:31N 41°20' E 002°11'0 0.0
2014-Jul-22 09:31N 41°20' E 002°11'0 0.0
2014-Jul-22 08:31N 41°20' E 002°11'  
Track history (hours):
 
Tides and Currents Weather Stations Pressure Air Temp Water Temp Dewpoint Dewpoint Depression Visibility Wind Speed Wind Dir Waves Ship Positions

YM Venus

Last reported at 2014-Aug-01 00:13 UTC. Time now 2014-Aug-02 06:34 UTC.
Position N 32°49' E 035°02'.

Length 105 m; draft 6.5 m.

Type: Ship (hazmat cat B). MMSI: 215826000.

Date/timePositionNaut miles runAvg speedWind from/ knotsBaromVisibWave heightAir tempDewpointWater temp
2014-Aug-01 00:13N 32°49' E 035°02'0 0.0
2014-Jul-31 23:03N 32°49' E 035°02'0 0.0
2014-Jul-31 22:33N 32°49' E 035°02'0 0.0
2014-Jul-31 21:29N 32°49' E 035°02'0 0.0
2014-Jul-31 20:15N 32°49' E 035°02'0 0.0
2014-Jul-31 17:21N 32°49' E 035°02'0 0.0
2014-Jul-31 16:15N 32°49' E 035°02'0 0.0
2014-Jul-31 15:17N 32°49' E 035°02'0 0.0
2014-Jul-30 17:20N 32°49' E 035°02'0 0.0
2014-Jul-30 16:33N 32°49' E 035°02'0 0.0
2014-Jul-30 08:09N 32°49' E 035°02'0 0.0
2014-Jul-30 06:33N 32°49' E 035°02'39 5.4
2014-Jul-29 23:17N 32°60' E 034°17'912.0
2014-Jul-29 22:31N 33°02' E 034°06'1111.9
2014-Jul-29 21:33N 33°05' E 033°53'1111.6
2014-Jul-29 20:33N 33°08' E 033°40'1111.5
2014-Jul-29 19:33N 33°10' E 033°27'1211.2
2014-Jul-29 18:31N 33°13' E 033°13'1111.3
2014-Jul-29 17:33N 33°16' E 033°00'1111.2
2014-Jul-29 16:33N 33°17' E 032°47'1110.6
2014-Jul-29 15:33N 33°18' E 032°35'1110.7
2014-Jul-29 14:33N 33°21' E 032°22'1111.0
2014-Jul-29 13:33N 33°24' E 032°09'2 2.4
2014-Jul-29 12:33N 33°25' E 032°07'6 5.7
2014-Jul-29 11:33N 33°24' E 032°14'1111.3
2014-Jul-29 10:34N 33°27' E 032°01'1111.3
2014-Jul-29 09:34N 33°30' E 031°48'1111.1
2014-Jul-29 08:33N 33°33' E 031°35'1111.1
2014-Jul-29 07:33N 33°35' E 031°21'1311.1
2014-Jul-29 06:21N 33°38' E 031°06'911.8
2014-Jul-29 05:33N 33°40' E 030°55'1511.9
2014-Jul-29 04:16N 33°43' E 030°37'9111.7
2014-Jul-28 20:30N 34°05' E 028°51'5212.2
2014-Jul-28 16:14N 34°17' E 027°49'21911.5
2014-Jul-27 21:12N 35°07' E 023°30'3011.2
2014-Jul-27 18:29N 35°10' E 022°53'35811.5
2014-Jul-26 11:15N 35°59' E 015°36'3111.5
2014-Jul-26 08:33N 36°07' E 014°59'1312.3
2014-Jul-26 07:32N 36°10' E 014°44'1212.1
2014-Jul-26 06:33N 36°13' E 014°30'1212.0
2014-Jul-26 05:34N 36°17' E 014°15'1212.2
2014-Jul-26 04:34N 36°21' E 014°01'1211.9
2014-Jul-26 03:34N 36°25' E 013°47'1211.8
2014-Jul-26 02:33N 36°30' E 013°34'1211.8
2014-Jul-26 01:33N 36°34' E 013°20'1312.6
2014-Jul-26 00:34N 36°39' E 013°06'1312.9
2014-Jul-25 23:34N 36°44' E 012°51'1312.8
2014-Jul-25 22:33N 36°48' E 012°36'1312.6
2014-Jul-25 21:33N 36°53' E 012°21'1212.4
2014-Jul-25 20:34N 36°58' E 012°07'1212.0
2014-Jul-25 19:34N 37°03' E 011°53'2911.8
2014-Jul-25 17:07N 37°17' E 011°22'4211.1
2014-Jul-25 13:18N 37°38' E 010°36'4 4.7
2014-Jul-25 12:32N 37°40' E 010°32'10 9.9
2014-Jul-25 11:32N 37°45' E 010°21'1111.4
2014-Jul-25 10:33N 37°52' E 010°10'1111.2
2014-Jul-25 09:33N 37°58' E 009°58'1111.3
2014-Jul-25 08:33N 38°04' E 009°46'1111.4
2014-Jul-25 07:33N 38°11' E 009°34'1111.3
2014-Jul-25 06:33N 38°17' E 009°22'1211.8
2014-Jul-25 05:33N 38°24' E 009°10'1211.7
2014-Jul-25 04:33N 38°31' E 008°58'1111.6
2014-Jul-25 03:33N 38°38' E 008°46'1711.9
2014-Jul-25 02:08N 38°46' E 008°27'1912.0
2014-Jul-25 00:33N 38°53' E 008°05'1211.6
2014-Jul-24 23:33N 38°58' E 007°51'1611.2
2014-Jul-24 22:06N 39°06' E 007°32'1111.5
2014-Jul-24 21:10N 39°12' E 007°21'3111.9
2014-Jul-24 18:33N 39°26' E 006°45'3611.7
2014-Jul-24 15:30N 39°42' E 006°04'1411.6
2014-Jul-24 14:18N 39°49' E 005°47'2813.0
2014-Jul-24 12:11N 40°02' E 005°16'1112.0
2014-Jul-24 11:17N 40°08' E 005°05'1112.5
2014-Jul-24 10:26N 40°13' E 004°53'1111.8
2014-Jul-24 09:32N 40°19' E 004°41'1212.0
2014-Jul-24 08:33N 40°24' E 004°27'1212.1
2014-Jul-24 07:33N 40°29' E 004°13'1312.2
2014-Jul-24 06:27N 40°35' E 003°57'1312.6
2014-Jul-24 05:28N 40°41' E 003°42'1010.8
2014-Jul-24 04:33N 40°45' E 003°30'1212.0
2014-Jul-24 03:33N 40°51' E 003°16'1312.9
2014-Jul-24 02:33N 40°56' E 003°01'1111.0
2014-Jul-24 01:33N 41°01' E 002°48'1211.7
2014-Jul-24 00:33N 41°07' E 002°35'1111.4
2014-Jul-23 23:33N 41°12' E 002°21'1110.8
2014-Jul-23 22:33N 41°19' E 002°10'1 0.0
2014-Jul-22 23:19N 41°20' E 002°09'0 0.0
2014-Jul-22 22:11N 41°20' E 002°09'1 1.5
2014-Jul-22 21:33N 41°20' E 002°10'1 0.3
2014-Jul-22 18:13N 41°20' E 002°11'0 0.0
2014-Jul-22 17:07N 41°20' E 002°11'0 0.0
2014-Jul-22 16:19N 41°20' E 002°11'0 0.0
2014-Jul-22 15:31N 41°20' E 002°11'0 0.0
2014-Jul-22 13:19N 41°20' E 002°11'0 0.0
2014-Jul-22 11:13N 41°20' E 002°11'0 0.0
2014-Jul-22 10:31N 41°20' E 002°11'0 0.0
2014-Jul-22 09:31N 41°20' E 002°11'0 0.0
2014-Jul-22 08:31N 41°20' E 002°11'  

Dump ship's entire track history